KBGM METAR

Date/Time (Local) Flight Rules Wind Clouds Visibility Temperature Dewpoint Altimeter Remarks
09/20 8:53 pm VFR 330° @ 7 kts CLR 10.0sm 20.0°C / 68°F 15.0°C / 59°F 30.029528
09/20 7:53 pm VFR 350° @ 6 kts CLR 10.0sm 21.1°C / 69.8°F 14.4°C / 57.2°F 30.02067
09/20 6:53 pm VFR 340° @ 6 kts CLR 10.0sm 22.8°C / 71.6°F 14.4°C / 57.2°F 30.02067
09/20 5:53 pm VFR 350° @ 8 kts CLR 10.0sm 24.4°C / 75.2°F 14.4°C / 57.2°F 30.008858
09/20 4:53 pm VFR 360° @ 9 kts FEW 4800 10.0sm 25.6°C / 77°F 13.9°C / 55.4°F 30.0
09/20 3:53 pm VFR 10° @ 8 kts SCT 5000 10.0sm 26.1°C / 78.8°F 14.4°C / 57.2°F 30.0
09/20 2:53 pm VFR Variable @ 4 kts SCT 4600 10.0sm 25.6°C / 77°F 15.0°C / 59°F 30.008858
09/20 1:53 pm VFR 20° @ 5 kts SCT 3800 10.0sm 25.6°C / 77°F 15.0°C / 59°F 30.02067
Show/Hide History...

BGM AFD

.AVIATION /20Z WEDNESDAY THROUGH MONDAY/...
130 PM update...

VFR this afternoon and evening all sites. Valley fog again late
tonight in the usual locations. Again most likely and dense at
ELM. Near airport minimums 7 to 14z. Return to VFR by 15z.

AVP and ITH could fall to MVFR vsbys late tonight...8 to 13z

BGM/SYR/RME could have MVFR vsbys too but confidence lower and
left out.

VFR after late morning and afternoon everywhere with clear to
partly skies.

Winds northwest to north at 4 to 8 kts this afternoon becoming
light and variable again tonight. Light winds Thursday again
northwest to north for a predominant direction.

Outlook...

Thursday night through Monday...VFR except for fog possible
each late night/early morning, especially at KELM but for other
terminals as well at times.

Nearby AWOS/ASOS

KBGM: Binghamton 607-729-8335 128.15
KCZG: Tri-Cities 607-785-2926 119.075
N23: Sidney 607-561-2333 118.275
KOIC: Norwich 607-336-8583 119.025
N03: Cortland 607-753-9784 132.225
KAVP: Scranton 570-655-0748  

KBGM TAF

Date/Time (Local) Flight Rules Wind Clouds Visibility (sm)  
09/20 8:00 pm thru 09/21 10:00 am VFR 340° @ 5 kts SCT 25000 >= 6
09/21 10:00 am thru 09/21 8:00 pm FM VFR 350° @ 7 kts FEW 4500 >= 6

KELM METAR

Date/Time (Local) Flight Rules Wind Clouds Visibility Temperature Dewpoint Altimeter Remarks
09/20 8:53 pm VFR 120° @ 5 kts CLR 10.0sm 19.4°C / 66.2°F 17.2°C / 62.6°F 30.02067
09/20 7:53 pm VFR Calm CLR 10.0sm 21.7°C / 69.8°F 17.8°C / 62.6°F 30.008858
09/20 6:53 pm VFR 30° @ 4 kts CLR 10.0sm 23.9°C / 73.4°F 17.8°C / 62.6°F 30.0
09/20 5:53 pm VFR 360° @ 5 kts CLR 10.0sm 26.1°C / 78.8°F 17.8°C / 62.6°F 30.0
09/20 4:53 pm VFR 350° @ 9 kts CLR 10.0sm 27.2°C / 80.6°F 17.2°C / 62.6°F 29.991142
09/20 3:53 pm VFR 20° @ 11 kts CLR 7.0sm 27.8°C / 80.6°F 16.7°C / 60.8°F 29.991142
09/20 2:53 pm VFR 10° @ 10 kts CLR 10.0sm 27.8°C / 80.6°F 15.6°C / 59°F 30.0
09/20 1:53 pm VFR 40° @ 12 kts CLR 10.0sm 27.2°C / 80.6°F 16.7°C / 60.8°F 30.008858
Show/Hide History...

KITH METAR

Date/Time (Local) Flight Rules Wind Clouds Visibility Temperature Dewpoint Altimeter Remarks
09/20 8:56 pm VFR Calm CLR 10.0sm 17.8°C / 62.6°F 16.1°C / 60.8°F 30.050198
09/20 7:56 pm VFR 330° @ 4 kts CLR 10.0sm 18.3°C / 64.4°F 16.1°C / 60.8°F 30.029528
09/20 6:56 pm VFR 300° @ 5 kts CLR 10.0sm 20.6°C / 68°F 17.2°C / 62.6°F 30.029528
09/20 5:56 pm VFR 330° @ 7 kts FEW 3500 10.0sm 23.9°C / 73.4°F 17.8°C / 62.6°F 30.02067
09/20 4:56 pm VFR 290° @ 10 kts FEW 3500 10.0sm 25.0°C / 77°F 17.8°C / 62.6°F 30.008858
09/20 3:56 pm VFR 330° @ 7 kts SCT 3500 10.0sm 25.6°C / 77°F 17.8°C / 62.6°F 30.008858
09/20 2:56 pm VFR 290° @ 10 kts SCT 3500 10.0sm 25.6°C / 77°F 18.9°C / 64.4°F 30.02067
09/20 1:56 pm VFR 290° @ 13 kts FEW 3000 10.0sm 23.9°C / 73.4°F 18.3°C / 64.4°F 30.029528
Show/Hide History...

KAVP METAR

Date/Time (Local) Flight Rules Wind Clouds Visibility Temperature Dewpoint Altimeter Remarks
09/20 8:54 pm VFR 110° @ 4 kts CLR 10.0sm 21.7°C / 69.8°F 16.7°C / 60.8°F 29.991142
09/20 7:54 pm VFR 90° @ 3 kts CLR 10.0sm 22.8°C / 71.6°F 16.1°C / 60.8°F 29.97933
09/20 6:54 pm VFR 10° @ 5 kts CLR 10.0sm 26.1°C / 78.8°F 15.6°C / 59°F 29.970472
09/20 5:54 pm VFR 10° @ 7 kts CLR 10.0sm 27.8°C / 80.6°F 15.6°C / 59°F 29.970472
09/20 4:54 pm VFR 350° @ 11 kts CLR 10.0sm 28.3°C / 82.4°F 15.0°C / 59°F 29.958662
09/20 3:54 pm VFR 350° @ 12 kts CLR 10.0sm 28.9°C / 82.4°F 15.6°C / 59°F 29.958662
09/20 2:54 pm VFR 360° @ 9 kts CLR 10.0sm 28.9°C / 82.4°F 15.6°C / 59°F 29.958662
09/20 1:54 pm VFR 360° @ 7 kts CLR 10.0sm 28.3°C / 82.4°F 15.6°C / 59°F 29.958662
Show/Hide History...

KSYR METAR

Date/Time (Local) Flight Rules Wind Clouds Visibility Temperature Dewpoint Altimeter Remarks
09/20 8:54 pm VFR 270° @ 5 kts FEW 20000 SCT 26000 10.0sm 20.0°C / 68°F 17.8°C / 62.6°F 30.0
09/20 7:54 pm VFR 280° @ 5 kts FEW 18000 BKN 26000 10.0sm 21.7°C / 69.8°F 17.8°C / 62.6°F 29.97933
09/20 6:54 pm VFR 290° @ 6 kts FEW 6000 SCT 18000 BKN 25000 10.0sm 22.8°C / 71.6°F 18.3°C / 64.4°F 29.97933
09/20 5:54 pm VFR 310° @ 7 kts FEW 6500 SCT 20000 BKN 25000 10.0sm 25.0°C / 77°F 18.9°C / 64.4°F 29.970472
09/20 4:54 pm VFR 300° @ 8 kts FEW 4000 SCT 18000 BKN 25000 10.0sm 26.1°C / 78.8°F 18.3°C / 64.4°F 29.970472
09/20 3:54 pm VFR 300° @ 7 kts FEW 4200 SCT 6500 SCT 20000 10.0sm 26.7°C / 78.8°F 17.2°C / 62.6°F 29.970472
09/20 2:54 pm VFR 310° @ 5 kts SCT 3800 SCT 20000 10.0sm 26.7°C / 78.8°F 16.7°C / 60.8°F 29.970472
09/20 1:54 pm VFR Calm SCT 4000 SCT 25000 10.0sm 26.7°C / 78.8°F 17.2°C / 62.6°F 29.991142
Show/Hide History...